Airfield :
LOGIN :

Register | Disclaimer

   EN    FR    IT 

 










Legend :    VFR   Marginal VFR   IFR   Intensive IFR   Very Intensive IFR
Visi :
Ceiling :
>= 8 km
>= 3000ft
5 to 8 km
1000 to 3000 ft
1500m to 5 km
500 to 1000 ft
800 to 1500m
200 to 500 ft
< 800m
< 200 ft
Symbols :   Thunderstorms  Fog  Heavy snow  Heavy precipitations  Wind > 20 kt
SIGMETs :     Misc.  Thunderstorms  Icing  Turbulence  Mountain Waves  Volcanic Ashes







- Airport Elevation : 479 ft
- IATA code : DOL
- Download approach charts


LFRG - Deauville

CURRENT METAR :
  • 161330Z AUTO 19010KT 160V220 CAVOK 20/14 Q1017 NOSIG

EXPIRED METARs :
  • 161300Z AUTO 18006KT 140V220 9999 FEW021 20/14 Q1017 NOSIG
  • 161230Z AUTO 20008KT 160V240 9999 FEW021 19/14 Q1018 NOSIG
  • 161200Z AUTO 20007KT 150V240 CAVOK 19/13 Q1018 NOSIG
  • 161130Z AUTO 24008KT 200V270 CAVOK 18/13 Q1018 NOSIG
  • 161100Z AUTO 21007KT 170V250 CAVOK 19/13 Q1018 NOSIG

TAF TAF LFRG
Valid from the 16 at 12:00 until the 16 at 21:00 UTC


161100Z 1612/1621 20008KT 9999 FEW030
BECMG 1619/1621 3000 BR
ATIS : +33 2 31 65 65 36
No reported NOTAMs for that airfield.



MET'MAP, your aeronautical weather chart ! - Copyright ORBIFLY December 2007 - Disclaimer

ORBIFLY MET'MAP TEAM :

Programming & Development : Alexandra Zaïnal
Concept & Development : Baudouin d'Aumeries
Co-Development & Prog : Marc-Olivier Méhu
Technical & hardware support : Manuel Goepfert

Contact : metmap@orbifly.com




SOURCES & CREDITS :

   NOAA